createdAt,value
2019-05-13T00:00:34.189Z,93.80
2019-05-13T00:03:03.800Z,93.80
2019-05-13T00:05:33.838Z,94.10
2019-05-13T00:08:03.538Z,94.30
2019-05-13T00:10:34.759Z,94.50
2019-05-13T00:13:04.564Z,94.60
2019-05-13T00:15:34.033Z,94.60
2019-05-13T00:18:03.828Z,94.60
2019-05-13T00:20:33.798Z,94.60
2019-05-13T00:23:04.034Z,94.30
2019-05-13T00:25:34.017Z,94.40
2019-05-13T00:28:04.148Z,94.30
2019-05-13T00:30:34.203Z,94.40
2019-05-13T00:33:03.857Z,94.40
2019-05-13T00:35:33.815Z,94.50
2019-05-13T00:38:03.952Z,94.50
2019-05-13T00:40:35.550Z,94.40
2019-05-13T00:43:04.399Z,94.50
2019-05-13T00:45:34.018Z,94.70
2019-05-13T00:48:04.508Z,94.70
2019-05-13T00:50:33.835Z,94.80
2019-05-13T00:53:04.317Z,95.10
2019-05-13T00:55:34.353Z,95.10
2019-05-13T00:58:04.578Z,95.20
2019-05-13T01:00:34.151Z,95.40
2019-05-13T01:03:04.156Z,95.70
2019-05-13T01:05:34.047Z,95.80
2019-05-13T01:08:04.220Z,96.20
2019-05-13T01:10:34.657Z,96.40
2019-05-13T01:13:04.738Z,96.40
2019-05-13T01:15:34.285Z,96.30
2019-05-13T01:18:03.959Z,96.00
2019-05-13T01:20:34.472Z,95.70
2019-05-13T01:23:03.940Z,95.80
2019-05-13T01:25:33.922Z,95.60
2019-05-13T01:28:04.491Z,95.70
2019-05-13T01:30:34.586Z,95.70
2019-05-13T01:33:04.460Z,95.70
2019-05-13T01:35:34.328Z,95.90
2019-05-13T01:38:04.648Z,96.00
2019-05-13T01:40:34.851Z,96.10
2019-05-13T01:43:03.853Z,96.30
2019-05-13T01:45:33.899Z,96.90
2019-05-13T01:48:06.751Z,96.80
2019-05-13T01:50:33.778Z,97.10
2019-05-13T01:53:04.150Z,97.10
2019-05-13T01:55:34.014Z,97.10
2019-05-13T01:58:04.340Z,97.20
2019-05-13T02:00:35.384Z,97.20
2019-05-13T02:03:04.027Z,97.30
2019-05-13T02:05:33.979Z,97.50
2019-05-13T02:08:04.405Z,97.80
2019-05-13T02:10:53.832Z,97.80
2019-05-13T02:13:24.047Z,97.90
2019-05-13T02:15:54.201Z,97.70
2019-05-13T02:18:24.375Z,97.80
2019-05-13T02:20:55.419Z,97.50
2019-05-13T02:23:24.075Z,97.50
2019-05-13T02:25:54.227Z,98.00
2019-05-13T02:28:24.969Z,98.00
2019-05-13T02:30:55.986Z,97.90
2019-05-13T02:33:24.260Z,97.80
2019-05-13T02:35:53.498Z,98.20
2019-05-13T02:38:28.769Z,98.20
2019-05-13T02:40:53.286Z,98.70
2019-05-13T02:43:23.856Z,98.50
2019-05-13T02:45:53.754Z,98.70
2019-05-13T02:48:23.624Z,98.90
2019-05-13T02:50:53.523Z,98.90
2019-05-13T02:53:23.687Z,98.90
2019-05-13T02:55:53.174Z,98.60
2019-05-13T02:58:24.480Z,98.50
2019-05-13T03:00:53.809Z,98.60
2019-05-13T03:03:23.771Z,98.60
2019-05-13T03:05:53.619Z,98.80
2019-05-13T03:08:39.092Z,99.20
2019-05-13T03:10:53.914Z,99.20
2019-05-13T03:13:24.004Z,99.10
2019-05-13T03:15:54.807Z,99.20
2019-05-13T03:18:23.360Z,99.20
2019-05-13T03:20:52.901Z,99.20
2019-05-13T03:23:22.707Z,99.00
2019-05-13T03:25:53.780Z,98.90
2019-05-13T03:28:25.903Z,98.90
2019-05-13T03:30:56.198Z,98.60
2019-05-13T03:33:27.759Z,98.70
2019-05-13T03:35:56.548Z,98.90
2019-05-13T03:38:26.071Z,98.70
2019-05-13T03:40:57.399Z,98.60
2019-05-13T03:43:32.232Z,98.60
2019-05-13T03:46:03.389Z,98.30
2019-05-13T03:48:33.737Z,98.40
2019-05-13T03:51:02.812Z,98.50
2019-05-13T03:53:32.576Z,98.40
2019-05-13T03:56:02.876Z,98.30
2019-05-13T03:58:32.510Z,98.10
2019-05-13T04:01:02.813Z,98.30
2019-05-13T04:03:33.105Z,98.30
2019-05-13T04:06:03.523Z,98.30
2019-05-13T04:08:32.864Z,98.30
2019-05-13T04:11:02.955Z,98.20
2019-05-13T04:13:33.567Z,98.20
2019-05-13T04:16:03.910Z,98.50
2019-05-13T04:18:32.863Z,98.40
2019-05-13T04:21:02.822Z,98.30
2019-05-13T04:23:32.563Z,98.10
2019-05-13T04:26:03.064Z,98.10
2019-05-13T04:28:33.260Z,98.30
2019-05-13T04:31:03.477Z,98.60
2019-05-13T04:33:33.376Z,98.70
2019-05-13T04:36:02.846Z,98.40
2019-05-13T04:38:33.038Z,98.10
2019-05-13T04:41:03.689Z,97.80
2019-05-13T04:43:34.697Z,97.90
2019-05-13T04:46:02.806Z,97.60
2019-05-13T04:48:34.056Z,97.50
2019-05-13T04:51:03.043Z,97.10
2019-05-13T04:53:33.571Z,96.90
2019-05-13T04:56:03.350Z,97.30
2019-05-13T04:58:32.417Z,97.20
2019-05-13T05:01:19.263Z,96.90
2019-05-13T05:04:03.681Z,96.70
2019-05-13T05:06:35.709Z,96.80
2019-05-13T05:09:12.661Z,97.10
2019-05-13T05:11:49.252Z,97.90
2019-05-13T05:14:24.069Z,97.90
2019-05-13T05:17:22.615Z,97.80
2019-05-13T05:20:04.213Z,98.00
2019-05-13T05:22:42.015Z,97.90
2019-05-13T05:25:32.342Z,98.10
2019-05-13T05:28:06.947Z,98.20
2019-05-13T05:31:12.006Z,98.10
2019-05-13T05:34:18.094Z,98.20
2019-05-13T05:36:58.591Z,98.20
2019-05-13T05:39:28.485Z,97.90
2019-05-13T05:41:58.388Z,98.00
2019-05-13T05:44:32.096Z,98.30
2019-05-13T05:47:02.814Z,98.10
2019-05-13T05:49:32.209Z,98.00
2019-05-13T05:52:06.338Z,97.50
2019-05-13T05:54:38.148Z,97.00
2019-05-13T05:57:08.117Z,96.60
2019-05-13T05:59:37.540Z,96.30
2019-05-13T06:02:07.473Z,96.20
2019-05-13T06:04:36.639Z,95.90
2019-05-13T06:07:05.607Z,95.70
2019-05-13T06:09:34.316Z,95.40
2019-05-13T06:12:02.978Z,95.70
2019-05-13T06:14:32.691Z,95.50
2019-05-13T06:17:02.768Z,95.20
2019-05-13T06:19:32.042Z,95.30
2019-05-13T06:22:02.348Z,94.90
2019-05-13T06:24:31.614Z,94.80
2019-05-13T06:27:01.623Z,94.70
2019-05-13T06:29:31.684Z,94.60
2019-05-13T06:32:15.184Z,94.50
2019-05-13T06:34:32.830Z,94.50
2019-05-13T06:37:01.998Z,94.30
2019-05-13T06:39:31.888Z,94.20
2019-05-13T06:42:02.782Z,94.30
2019-05-13T06:44:31.787Z,94.20
2019-05-13T06:47:02.432Z,94.20
2019-05-13T06:49:32.325Z,94.00
2019-05-13T06:52:01.870Z,94.10
2019-05-13T06:54:32.987Z,94.10
2019-05-13T06:57:04.653Z,93.90
2019-05-13T06:59:31.885Z,93.90
2019-05-13T07:02:02.110Z,93.60
2019-05-13T07:04:32.673Z,93.50
2019-05-13T07:07:12.402Z,93.50
2019-05-13T07:09:32.566Z,93.20
2019-05-13T07:12:03.279Z,93.10
2019-05-13T07:14:32.592Z,92.90
2019-05-13T07:17:02.230Z,92.70
2019-05-13T07:19:32.373Z,92.50
2019-05-13T07:22:02.867Z,92.30
2019-05-13T07:24:32.428Z,92.60
2019-05-13T07:27:01.858Z,92.50
2019-05-13T07:29:32.506Z,92.60
2019-05-13T07:32:01.862Z,92.70
2019-05-13T07:34:33.612Z,92.40
2019-05-13T07:37:01.991Z,92.50
2019-05-13T07:39:32.679Z,92.60
2019-05-13T07:42:05.438Z,92.30
2019-05-13T07:44:32.534Z,92.20
2019-05-13T07:47:03.419Z,91.80
2019-05-13T07:49:31.762Z,91.90
2019-05-13T07:52:01.657Z,92.10
2019-05-13T07:54:32.868Z,92.10
2019-05-13T07:57:02.011Z,91.90
2019-05-13T07:59:31.834Z,91.80
2019-05-13T08:02:02.055Z,91.80
2019-05-13T08:04:33.619Z,91.70
2019-05-13T08:07:02.147Z,91.50
2019-05-13T08:09:32.010Z,91.40
2019-05-13T08:12:09.873Z,91.00
2019-05-13T08:14:32.793Z,91.30
2019-05-13T08:17:02.710Z,90.80
2019-05-13T08:19:32.541Z,90.60
2019-05-13T08:22:02.330Z,90.40
2019-05-13T08:24:31.671Z,90.30
2019-05-13T08:27:02.035Z,90.20
2019-05-13T08:29:32.721Z,90.10
2019-05-13T08:32:02.707Z,88.70
2019-05-13T08:34:32.880Z,88.90
2019-05-13T08:37:03.130Z,88.10
2019-05-13T08:39:36.563Z,89.00
2019-05-13T08:42:12.718Z,88.10
2019-05-13T08:44:32.776Z,88.20
2019-05-13T08:47:02.919Z,88.00
2019-05-13T08:49:32.718Z,84.50
2019-05-13T08:52:01.844Z,85.70
2019-05-13T08:54:32.853Z,87.40
2019-05-13T08:57:02.822Z,86.10
2019-05-13T08:59:31.940Z,86.30
2019-05-13T09:02:02.884Z,86.80
2019-05-13T09:04:31.718Z,87.10
2019-05-13T09:07:02.162Z,87.10
2019-05-13T09:09:31.696Z,87.10
2019-05-13T09:12:02.583Z,87.30
2019-05-13T09:14:32.423Z,86.90
2019-05-13T09:17:01.940Z,85.40
2019-05-13T09:19:32.186Z,85.40
2019-05-13T09:22:02.884Z,84.10
2019-05-13T09:24:37.255Z,84.30
2019-05-13T09:27:02.059Z,85.10
2019-05-13T09:29:32.244Z,84.40
2019-05-13T09:32:03.785Z,83.90
2019-05-13T09:34:32.871Z,84.30
2019-05-13T09:37:02.777Z,82.10
2019-05-13T09:39:32.407Z,82.30
2019-05-13T09:42:02.744Z,82.30
2019-05-13T09:44:32.975Z,82.30
2019-05-13T09:47:02.830Z,83.10
2019-05-13T09:49:32.765Z,82.90
2019-05-13T09:52:02.103Z,82.40
2019-05-13T09:54:32.922Z,81.80
2019-05-13T09:57:01.802Z,82.30
2019-05-13T09:59:31.885Z,82.20
2019-05-13T10:02:03.022Z,82.20
2019-05-13T10:04:31.795Z,82.10
2019-05-13T10:07:02.166Z,81.60
2019-05-13T10:09:32.559Z,81.80
2019-05-13T10:12:03.153Z,80.40
2019-05-13T10:14:32.949Z,81.80
2019-05-13T10:17:06.049Z,82.80
2019-05-13T10:19:32.582Z,82.20
2019-05-13T10:22:01.814Z,81.70
2019-05-13T10:24:32.738Z,81.60
2019-05-13T10:27:02.560Z,81.50
2019-05-13T10:29:32.238Z,81.60
2019-05-13T10:32:02.728Z,81.30
2019-05-13T10:34:32.423Z,81.60
2019-05-13T10:37:02.729Z,81.00
2019-05-13T10:39:31.865Z,78.30
2019-05-13T10:42:03.463Z,80.10
2019-05-13T10:44:30.873Z,80.50
2019-05-13T10:46:59.457Z,79.90
2019-05-13T10:49:32.741Z,79.00
2019-05-13T10:52:02.841Z,79.20
2019-05-13T10:54:32.283Z,79.40
2019-05-13T10:57:03.556Z,78.10
2019-05-13T10:59:30.729Z,79.00
2019-05-13T11:02:02.088Z,78.50
2019-05-13T11:04:32.016Z,78.60
2019-05-13T11:07:07.866Z,78.40
2019-05-13T11:09:36.153Z,78.60
2019-05-13T11:12:04.919Z,79.30
2019-05-13T11:14:33.816Z,79.60
2019-05-13T11:17:02.594Z,78.40
2019-05-13T11:19:36.097Z,77.60
2019-05-13T11:22:02.729Z,77.00
2019-05-13T11:24:32.428Z,76.50
2019-05-13T11:27:02.780Z,76.80
2019-05-13T11:29:32.533Z,75.90
2019-05-13T11:32:02.710Z,75.70
2019-05-13T11:34:37.682Z,76.10
2019-05-13T11:37:06.417Z,75.40
2019-05-13T11:39:34.957Z,74.90
2019-05-13T11:42:03.619Z,75.40
2019-05-13T11:44:32.517Z,73.90
2019-05-13T11:47:02.439Z,70.40
2019-05-13T11:49:31.805Z,72.90
2019-05-13T11:52:02.707Z,73.00
2019-05-13T11:54:30.808Z,72.90
2019-05-13T11:59:32.676Z,71.90
2019-05-13T12:02:03.942Z,71.80
2019-05-13T12:04:33.129Z,72.30
2019-05-13T12:07:03.564Z,71.80
2019-05-13T12:09:32.018Z,71.40
2019-05-13T12:12:03.181Z,71.40
2019-05-13T12:14:44.297Z,66.90
2019-05-13T12:17:02.260Z,69.50
2019-05-13T12:19:31.033Z,69.00
2019-05-13T12:22:02.662Z,66.60
2019-05-13T12:24:29.980Z,69.00
2019-05-13T12:26:58.639Z,69.30
2019-05-13T12:29:39.036Z,68.90
2019-05-13T12:32:07.613Z,66.10
2019-05-13T12:34:40.986Z,67.50
2019-05-13T12:37:06.826Z,67.70
2019-05-13T12:39:35.558Z,67.40
2019-05-13T12:42:04.229Z,67.50
2019-05-13T12:44:33.123Z,67.30
2019-05-13T12:47:03.265Z,65.30
2019-05-13T12:49:36.248Z,67.10
2019-05-13T12:52:04.634Z,63.70
2019-05-13T12:54:33.532Z,66.00
2019-05-13T12:57:03.592Z,65.00
2019-05-13T12:59:32.399Z,66.10
2019-05-13T13:02:03.263Z,64.60
2019-05-13T13:04:33.542Z,65.20
2019-05-13T13:07:01.403Z,65.60
2019-05-13T13:09:33.218Z,65.30
2019-05-13T13:12:00.259Z,65.50
2019-05-13T13:14:38.210Z,62.70
2019-05-13T13:17:03.477Z,61.40
2019-05-13T13:19:29.550Z,59.70
2019-05-13T13:22:03.276Z,62.80
2019-05-13T13:24:37.312Z,62.40
2019-05-13T13:27:14.741Z,62.10
2019-05-13T13:29:36.494Z,61.60
2019-05-13T13:32:05.190Z,62.20
2019-05-13T13:34:33.962Z,61.20
2019-05-13T13:37:05.073Z,61.50
2019-05-13T13:39:32.748Z,60.70
2019-05-13T13:42:05.412Z,62.10
2019-05-13T13:44:35.035Z,62.70
2019-05-13T13:47:01.912Z,62.50
2019-05-13T13:49:34.856Z,62.00
2019-05-13T13:52:00.717Z,62.50
2019-05-13T13:54:32.789Z,63.00
2019-05-13T13:57:01.875Z,62.40
2019-05-13T13:59:35.580Z,62.00
2019-05-13T14:02:05.137Z,61.00
2019-05-13T14:04:30.234Z,60.70
2019-05-13T14:07:03.201Z,69.00
2019-05-13T14:09:29.227Z,60.80
2019-05-13T14:11:57.888Z,60.50
2019-05-13T14:14:26.445Z,60.80
2019-05-13T14:16:55.054Z,61.00
2019-05-13T14:19:23.630Z,61.30
2019-05-13T14:22:11.789Z,60.20
2019-05-13T14:24:22.468Z,59.70
2019-05-13T14:26:52.396Z,60.00
2019-05-13T14:29:36.120Z,56.50
2019-05-13T14:31:52.100Z,56.40
2019-05-13T14:34:20.999Z,57.00
2019-05-13T14:36:51.609Z,57.90
2019-05-13T14:39:22.047Z,58.70
2019-05-13T14:41:51.615Z,57.90
2019-05-13T14:44:21.905Z,57.90
2019-05-13T14:46:52.319Z,57.90
2019-05-13T14:49:22.461Z,58.40
2019-05-13T14:51:52.288Z,58.00
2019-05-13T14:54:21.367Z,58.70
2019-05-13T14:56:52.038Z,58.30
2019-05-13T14:59:22.116Z,57.60
2019-05-13T15:01:51.837Z,57.40
2019-05-13T15:04:22.178Z,57.90
2019-05-13T15:06:51.809Z,57.90
2019-05-13T15:09:22.271Z,58.10
2019-05-13T15:11:52.747Z,58.00
2019-05-13T15:14:22.018Z,56.20
2019-05-13T15:17:02.217Z,55.40
2019-05-13T15:19:22.351Z,54.10
2019-05-13T15:21:52.099Z,56.00
2019-05-13T15:24:21.377Z,55.40
2019-05-13T15:26:51.683Z,56.30
2019-05-13T15:29:22.368Z,56.30
2019-05-13T15:31:51.471Z,56.00
2019-05-13T15:34:20.431Z,55.80
2019-05-13T15:36:50.769Z,53.00
2019-05-13T15:39:19.256Z,55.10
2019-05-13T15:41:47.876Z,55.50
2019-05-13T15:44:16.426Z,54.70
2019-05-13T15:46:45.022Z,54.80
2019-05-13T15:49:13.566Z,55.00
2019-05-13T15:51:42.419Z,54.70
2019-05-13T15:54:15.380Z,53.20
2019-05-13T15:56:41.294Z,54.00
2019-05-13T15:59:12.392Z,52.50
2019-05-13T16:01:41.447Z,51.60
2019-05-13T16:04:12.829Z,52.20
2019-05-13T16:06:45.378Z,51.40
2019-05-13T16:09:13.934Z,51.40
2019-05-13T16:11:42.515Z,50.90
2019-05-13T16:14:11.870Z,50.50
2019-05-13T16:16:41.746Z,51.40
2019-05-13T16:19:10.613Z,51.00
2019-05-13T16:21:41.362Z,50.80
2019-05-13T16:24:11.937Z,50.60
2019-05-13T16:26:42.696Z,50.50
2019-05-13T16:29:12.504Z,49.50
2019-05-13T16:31:41.559Z,49.80
2019-05-13T16:34:12.804Z,49.80
2019-05-13T16:36:42.800Z,48.50
2019-05-13T16:39:12.322Z,49.50
2019-05-13T16:41:42.640Z,49.20
2019-05-13T16:44:11.927Z,48.80
2019-05-13T16:46:42.444Z,48.80
2019-05-13T16:49:12.101Z,48.80
2019-05-13T16:51:42.678Z,48.90
2019-05-13T16:54:11.264Z,49.30
2019-05-13T16:56:42.063Z,48.40
2019-05-13T16:59:10.211Z,48.50
2019-05-13T17:01:38.797Z,49.00
2019-05-13T17:04:07.886Z,50.30
2019-05-13T17:06:36.841Z,50.80
2019-05-13T17:09:07.435Z,51.40
2019-05-13T17:11:36.226Z,51.80
2019-05-13T17:14:05.924Z,52.50
2019-05-13T17:16:34.805Z,52.30
2019-05-13T17:19:03.502Z,51.30
2019-05-13T17:21:32.165Z,50.30
2019-05-13T17:24:01.540Z,49.20
2019-05-13T17:26:32.740Z,49.60
2019-05-13T17:29:01.489Z,49.90
2019-05-13T17:31:32.377Z,49.90
2019-05-13T17:34:01.546Z,50.00
2019-05-13T17:36:32.424Z,49.40
2019-05-13T17:39:01.811Z,49.60
2019-05-13T17:41:32.073Z,48.50
2019-05-13T17:44:02.387Z,47.10
2019-05-13T17:46:32.589Z,46.20
2019-05-13T17:49:01.242Z,46.30
2019-05-13T17:51:30.088Z,46.70
2019-05-13T17:54:01.250Z,47.40
2019-05-13T17:56:28.844Z,47.20
2019-05-13T17:58:57.438Z,47.80
2019-05-13T18:01:25.995Z,47.20
2019-05-13T18:03:54.605Z,47.50
2019-05-13T18:06:23.194Z,47.70
2019-05-13T18:08:51.891Z,47.70
2019-05-13T18:11:21.923Z,48.20
2019-05-13T18:13:51.851Z,49.00
2019-05-13T18:16:21.722Z,49.40
2019-05-13T18:18:52.135Z,49.60
2019-05-13T18:21:20.814Z,50.00
2019-05-13T18:23:51.951Z,49.90
2019-05-13T18:26:21.472Z,50.10
2019-05-13T18:28:51.441Z,50.70
2019-05-13T18:31:20.131Z,50.90
2019-05-13T18:33:50.947Z,51.20
2019-05-13T18:36:19.003Z,51.50
2019-05-13T18:38:47.655Z,52.10
2019-05-13T18:41:22.385Z,52.30
2019-05-13T18:43:54.570Z,52.60
2019-05-13T18:46:21.976Z,53.10
2019-05-13T18:48:58.591Z,53.60
2019-05-13T18:51:21.195Z,54.00
2019-05-13T18:53:51.789Z,54.30
2019-05-13T18:56:21.784Z,54.50
2019-05-13T18:58:50.487Z,55.00
2019-05-13T19:01:21.424Z,55.10
2019-05-13T19:03:49.284Z,55.30
2019-05-13T19:06:17.840Z,55.40
2019-05-13T19:08:46.456Z,55.40
2019-05-13T19:11:15.051Z,55.50
2019-05-13T19:13:43.750Z,55.50
2019-05-13T19:16:12.413Z,55.70
2019-05-13T19:18:42.339Z,55.80
2019-05-13T19:21:11.296Z,55.80
2019-05-13T19:23:41.800Z,55.90
2019-05-13T19:26:11.318Z,56.00
2019-05-13T19:28:40.238Z,56.10
2019-05-13T19:31:11.394Z,56.20
2019-05-13T19:33:41.475Z,56.20
2019-05-13T19:36:11.625Z,56.30
2019-05-13T19:38:42.095Z,56.30
2019-05-13T19:41:11.666Z,56.50
2019-05-13T19:43:42.027Z,56.40
2019-05-13T19:46:10.648Z,56.40
2019-05-13T19:48:41.562Z,56.70
2019-05-13T19:51:09.498Z,56.60
2019-05-13T19:53:38.056Z,56.80
2019-05-13T19:56:06.656Z,56.70
2019-05-13T19:58:35.218Z,56.80
2019-05-13T20:01:03.933Z,57.00
2019-05-13T20:03:32.514Z,57.10
2019-05-13T20:06:02.243Z,57.20
2019-05-13T20:08:32.105Z,57.20
2019-05-13T20:11:02.103Z,57.40
2019-05-13T20:13:30.873Z,57.40
2019-05-13T20:16:01.421Z,57.50
2019-05-13T20:18:31.768Z,57.60
2019-05-13T20:21:01.247Z,57.60
2019-05-13T20:23:31.963Z,57.60
2019-05-13T20:26:00.366Z,57.80
2019-05-13T20:28:31.454Z,57.70
2019-05-13T20:31:01.646Z,57.80
2019-05-13T20:33:31.971Z,57.90
2019-05-13T20:36:01.629Z,58.10
2019-05-13T20:38:31.633Z,58.20
2019-05-13T20:41:01.480Z,58.20
2019-05-13T20:43:32.751Z,58.30
2019-05-13T20:46:01.976Z,58.50
2019-05-13T20:48:32.032Z,58.70
2019-05-13T20:51:02.499Z,58.70
2019-05-13T20:53:31.134Z,58.80
2019-05-13T20:56:01.709Z,58.80
2019-05-13T20:58:31.814Z,58.90
2019-05-13T21:01:02.441Z,59.00
2019-05-13T21:03:31.563Z,59.20
2019-05-13T21:06:00.397Z,59.20
2019-05-13T21:08:29.158Z,59.30
2019-05-13T21:10:57.897Z,59.50
2019-05-13T21:13:26.575Z,59.60
2019-05-13T21:15:55.353Z,59.80
2019-05-13T21:18:23.911Z,59.90
2019-05-13T21:20:52.504Z,60.00
2019-05-13T21:23:21.743Z,60.70
2019-05-13T21:25:51.038Z,60.00
2019-05-13T21:28:21.845Z,60.10
2019-05-13T21:30:51.423Z,60.30
2019-05-13T21:33:22.167Z,60.50
2019-05-13T21:35:51.188Z,60.60
2019-05-13T21:38:22.270Z,60.60
2019-05-13T21:40:52.077Z,60.60
2019-05-13T21:43:21.632Z,60.70
2019-05-13T21:45:52.087Z,60.80
2019-05-13T21:48:21.765Z,60.90
2019-05-13T21:50:51.647Z,60.90
2019-05-13T21:53:21.729Z,61.00
2019-05-13T21:55:52.065Z,61.00
2019-05-13T21:58:22.221Z,61.00
2019-05-13T22:00:52.294Z,61.10
2019-05-13T22:03:21.128Z,61.20
2019-05-13T22:05:51.561Z,61.20
2019-05-13T22:08:21.615Z,61.30
2019-05-13T22:10:52.349Z,61.50
2019-05-13T22:13:20.571Z,61.60
2019-05-13T22:15:49.133Z,61.80
2019-05-13T22:18:17.868Z,62.00
2019-05-13T22:20:50.435Z,62.20
2019-05-13T22:23:16.748Z,62.20
2019-05-13T22:25:45.415Z,62.10
2019-05-13T22:28:13.986Z,62.40
2019-05-13T22:30:42.584Z,62.50
2019-05-13T22:33:12.265Z,62.70
2019-05-13T22:35:41.622Z,62.80
2019-05-13T22:38:12.325Z,62.90
2019-05-13T22:40:41.926Z,63.00
2019-05-13T22:43:12.205Z,62.90
2019-05-13T22:45:41.944Z,63.00
2019-05-13T22:48:14.570Z,63.10
2019-05-13T22:50:42.667Z,63.40
2019-05-13T22:53:12.075Z,63.50
2019-05-13T22:55:41.770Z,63.80
2019-05-13T22:58:10.630Z,64.00
2019-05-13T23:00:39.279Z,64.20
2019-05-13T23:03:07.889Z,64.20
2019-05-13T23:05:36.765Z,64.50
2019-05-13T23:08:05.324Z,64.70
2019-05-13T23:10:33.922Z,65.00
2019-05-13T23:13:02.483Z,65.10
2019-05-13T23:15:31.138Z,65.30
2019-05-13T23:18:01.264Z,65.30
2019-05-13T23:20:31.788Z,65.30
2019-05-13T23:23:01.290Z,65.40
2019-05-13T23:25:32.004Z,65.70
2019-05-13T23:28:00.302Z,65.90
2019-05-13T23:30:31.059Z,66.10
2019-05-13T23:32:59.157Z,66.60
2019-05-13T23:35:27.740Z,66.80
2019-05-13T23:37:56.309Z,66.90
2019-05-13T23:40:24.854Z,67.50
2019-05-13T23:42:53.566Z,68.40
2019-05-13T23:45:22.249Z,67.90
2019-05-13T23:47:52.004Z,68.60
2019-05-13T23:50:21.526Z,69.10
2019-05-13T23:52:51.166Z,69.40
2019-05-13T23:55:19.987Z,70.30
2019-05-13T23:57:48.558Z,70.40
